Terminal Aerodrome Forecast
Issued by NWS Upton, NY

Home | Current Version | Previous Version | Text Only | Print | Product List | Glossary On
Versions: 1 2 3 4 5 6 7 8 9 10 11 12 13 14 15 16 17 18 19 20 21 22 23 24 25 26 27 28
000
FTUS41 KOKX 252300
TAFEWR
TAF
KEWR 252320Z 2600/2706 23006KT P6SM FEW070
     FM260200 25005KT P6SM FEW250
     FM261700 21012KT P6SM SCT050 BKN150
     FM270100 20007KT P6SM BKN040 OVC080=

USA.gov is the U.S. government's official web portal to all federal, state and local government web resources and services.